Time;durP1;ratioP1;P1;durP2;ratioP2;P2;SDS_P1;SDS_P2;PMS_P1;PMS_P2;Temp;Humidity;BMP_temperature;BMP_pressure;BME280_temperature;BME280_humidity;BME280_pressure;Samples;Min_cycle;Max_cycle;Signal;HPM_P1;HPM_P2
2021/07/29 00:00:21;;;;;;;2.50;1.70;;;19.30;99.90;;;17.06;100.00;100820.13;3541487;39;100126;-84
2021/07/29 00:02:48;;;;;;;2.30;2.10;;;18.40;99.90;;;16.99;100.00;100836.25;3541275;39;102359;-84
2021/07/29 00:05:15;;;;;;;3.63;2.22;;;18.30;99.90;;;16.94;100.00;100857.56;3533224;39;103171;-83
2021/07/29 00:07:43;;;;;;;2.20;1.98;;;18.30;99.90;;;16.90;100.00;100879.78;3543037;39;100663;-84
2021/07/29 00:10:11;;;;;;;4.13;2.28;;;18.60;99.90;;;16.84;100.00;100902.97;3531153;39;100080;-83
2021/07/29 00:12:38;;;;;;;3.53;2.17;;;18.20;99.90;;;16.79;100.00;100925.16;3542627;39;100856;-83
2021/07/29 00:15:10;;;;;;;3.20;1.92;;;18.10;99.90;;;16.75;100.00;100952.72;3542520;39;101079;-83
2021/07/29 00:20:24;;;;;;;3.85;2.20;;;18.70;99.90;;;16.68;100.00;100982.34;3532302;39;100088;-85
2021/07/29 00:22:54;;;;;;;3.10;1.75;;;18.20;99.90;;;16.64;100.00;100991.81;3522999;39;101972;-84
2021/07/29 00:25:22;;;;;;;2.22;1.58;;;17.90;99.90;;;16.63;100.00;100986.59;3539883;39;100765;-84
2021/07/29 00:27:51;;;;;;;3.03;2.08;;;17.90;99.90;;;16.59;100.00;100980.66;3545912;39;100695;-85
2021/07/29 00:30:21;;;;;;;3.95;2.60;;;17.10;99.90;;;16.56;100.00;100982.91;3544991;39;100042;-84
2021/07/29 00:32:48;;;;;;;2.25;2.05;;;18.20;99.90;;;16.50;100.00;100969.09;3553973;39;99909;-82
2021/07/29 00:35:16;;;;;;;3.42;1.75;;;17.70;99.90;;;16.44;100.00;100972.50;3535191;39;101962;-84
2021/07/29 00:37:46;;;;;;;4.90;2.70;;;17.70;99.90;;;16.45;100.00;100984.97;3543589;39;100504;-83
2021/07/29 00:40:16;;;;;;;3.65;2.10;;;17.70;99.90;;;16.39;100.00;100990.28;3542980;39;99883;-84
2021/07/29 00:42:43;;;;;;;3.17;2.13;;;17.70;99.90;;;16.36;100.00;100996.03;3543425;39;100664;-83
2021/07/29 00:45:11;;;;;;;4.40;2.60;;;17.70;99.90;;;16.40;100.00;101003.59;3540762;39;103210;-83
2021/07/29 00:47:41;;;;;;;3.88;2.53;;;17.60;99.90;;;16.34;100.00;101016.97;3533652;39;102611;-83
2021/07/29 00:50:11;;;;;;;3.03;2.53;;;18.60;99.90;;;16.39;100.00;101022.69;3537975;39;100229;-83
2021/07/29 00:52:40;;;;;;;3.65;2.58;;;17.60;99.90;;;16.38;100.00;101034.50;3531547;39;100876;-83
2021/07/29 00:55:10;;;;;;;3.35;2.60;;;17.50;99.90;;;16.45;100.00;101049.81;3531047;39;101465;-84
2021/07/29 00:57:38;;;;;;;3.10;2.13;;;17.60;99.90;;;16.46;100.00;101047.94;3522582;39;102252;-82
2021/07/29 01:00:07;;;;;;;3.97;2.22;;;17.60;99.90;;;16.44;100.00;101047.31;3530679;39;100114;-84
2021/07/29 01:02:34;;;;;;;3.67;2.47;;;17.60;99.90;;;16.38;100.00;101043.44;3531038;39;101256;-85
2021/07/29 01:05:01;;;;;;;3.53;2.55;;;17.60;99.90;;;16.39;100.00;101034.31;3531187;39;101187;-82
2021/07/29 01:07:28;;;;;;;4.35;2.38;;;17.60;99.90;;;16.34;100.00;101025.06;3519316;39;101932;-83
2021/07/29 01:09:55;;;;;;;5.13;2.20;;;17.60;99.90;;;16.34;100.00;101028.59;3531144;39;100041;-82
2021/07/29 01:12:22;;;;;;;2.95;2.15;;;17.50;99.90;;;16.35;100.00;100419.97;3532950;39;102230;-84
2021/07/29 01:14:51;;;;;;;2.53;2.15;;;17.50;99.90;;;16.28;100.00;100502.78;3537734;39;100354;-83
2021/07/29 01:17:18;;;;;;;2.33;2.13;;;18.40;99.90;;;16.35;100.00;100567.66;3530709;39;102235;-83
2021/07/29 01:19:45;;;;;;;4.28;2.10;;;17.50;99.90;;;16.41;100.00;100623.63;3522252;39;100419;-83
2021/07/29 01:22:13;;;;;;;5.18;2.15;;;17.40;99.90;;;16.38;100.00;100649.13;3534389;39;100824;-82
2021/07/29 01:24:40;;;;;;;3.47;2.17;;;17.40;99.90;;;16.40;100.00;100657.06;3529937;39;101352;-82
2021/07/29 01:27:07;;;;;;;2.65;2.25;;;17.40;99.90;;;16.38;100.00;100653.69;3531289;39;100847;-83
2021/07/29 01:29:34;;;;;;;4.13;2.25;;;17.40;99.90;;;16.37;100.00;100660.97;3532231;39;100493;-82
2021/07/29 01:32:01;;;;;;;2.50;2.30;;;17.50;99.90;;;16.49;100.00;100664.03;3531454;39;101324;-82
2021/07/29 01:34:28;;;;;;;8.18;2.63;;;17.40;99.90;;;16.49;100.00;100666.72;3532518;39;100657;-83
2021/07/29 01:36:55;;;;;;;3.15;2.22;;;17.40;99.90;;;16.54;100.00;100685.91;3533149;39;102116;-83
2021/07/29 01:39:24;;;;;;;4.72;2.65;;;17.40;99.90;;;16.50;100.00;100692.72;3532584;39;100092;-82
2021/07/29 01:41:51;;;;;;;4.47;2.75;;;17.50;99.90;;;16.48;100.00;100697.47;3537470;39;100901;-82
2021/07/29 01:44:18;;;;;;;6.68;3.22;;;17.50;99.90;;;16.46;100.00;100702.22;3536745;39;101366;-82
2021/07/29 01:46:45;;;;;;;3.90;2.22;;;17.50;99.90;;;16.40;100.00;100703.81;3531844;39;100451;-83
2021/07/29 01:49:12;;;;;;;3.13;2.55;;;17.50;99.90;;;16.43;100.00;100706.13;3541626;39;100131;-82
2021/07/29 01:51:39;;;;;;;3.80;2.55;;;17.50;99.90;;;16.43;100.00;100716.94;3548951;39;99858;-83
2021/07/29 01:54:06;;;;;;;5.60;3.70;;;17.50;99.90;;;16.43;100.00;100721.50;3546378;39;99898;-82
2021/07/29 01:56:34;;;;;;;3.47;2.60;;;17.50;99.90;;;16.43;100.00;100726.91;3533462;39;102191;-83
2021/07/29 01:59:06;;;;;;;5.20;2.78;;;17.40;99.90;;;16.44;100.00;100718.59;3532269;39;100228;-82
2021/07/29 02:01:33;;;;;;;4.05;2.50;;;17.40;99.90;;;16.38;100.00;100721.22;3533505;39;101076;-84
2021/07/29 02:04:00;;;;;;;2.42;2.22;;;17.40;99.90;;;16.43;100.00;100721.50;3534177;39;101423;-83
2021/07/29 02:06:27;;;;;;;3.30;2.45;;;17.40;99.90;;;16.39;100.00;100728.28;3531697;39;100444;-83
2021/07/29 02:08:54;;;;;;;3.78;2.55;;;17.40;99.90;;;16.42;100.00;100726.06;3533028;39;100099;-83
2021/07/29 02:11:24;;;;;;;2.75;2.25;;;17.60;99.90;;;16.32;100.00;100725.47;3541771;39;102742;-83
2021/07/29 02:13:52;;;;;;;3.70;2.45;;;17.30;99.90;;;16.40;100.00;100722.72;3537008;39;100597;-82
2021/07/29 02:16:19;;;;;;;3.10;2.45;;;17.30;99.90;;;16.44;100.00;100729.41;3530131;39;100946;-83
2021/07/29 02:18:46;;;;;;;3.50;2.75;;;17.30;99.90;;;16.52;100.00;100731.19;3533440;39;100054;-83
2021/07/29 02:21:13;;;;;;;4.20;2.80;;;18.30;99.90;;;16.50;100.00;100714.31;3536304;39;101030;-81
2021/07/29 02:23:40;;;;;;;3.35;2.58;;;17.40;99.90;;;16.46;100.00;100708.44;3534373;39;103380;-83
2021/07/29 02:26:07;;;;;;;3.15;2.38;;;17.40;99.90;;;16.43;100.00;100705.31;3535376;39;100174;-85
2021/07/29 02:28:34;;;;;;;5.50;2.45;;;17.60;99.90;;;16.35;100.00;100698.09;3538481;39;100129;-84
2021/07/29 02:31:03;;;;;;;3.97;2.28;;;17.40;99.90;;;16.27;100.00;100692.81;3544670;39;100812;-82
2021/07/29 02:33:30;;;;;;;3.88;2.58;;;17.30;99.90;;;16.25;100.00;100699.41;3536335;39;102202;-82
2021/07/29 02:35:57;;;;;;;4.85;2.90;;;17.30;99.90;;;16.12;100.00;100708.97;3545812;39;100957;-83
2021/07/29 02:38:24;;;;;;;4.32;3.05;;;17.40;99.90;;;16.04;100.00;100710.94;3544417;39;99854;-84
2021/07/29 02:40:51;;;;;;;6.78;3.40;;;16.30;99.90;;;15.99;100.00;100711.47;3547887;39;100232;-84
2021/07/29 02:43:18;;;;;;;4.35;2.58;;;17.20;99.90;;;15.99;100.00;100724.13;3548190;39;100995;-84
2021/07/29 02:45:46;;;;;;;4.03;2.92;;;17.10;99.90;;;15.92;100.00;100720.50;3542143;39;100190;-84
2021/07/29 02:48:14;;;;;;;3.92;2.63;;;17.10;99.90;;;15.82;100.00;100731.53;3535665;39;100519;-84
2021/07/29 02:50:41;;;;;;;4.13;2.55;;;17.00;99.90;;;15.79;100.00;100721.09;3536273;39;101172;-85
2021/07/29 02:53:08;;;;;;;2.78;2.40;;;16.90;99.90;;;15.79;100.00;100713.84;3535216;39;102422;-83
2021/07/29 02:55:35;;;;;;;3.63;2.03;;;16.90;99.90;;;15.81;100.00;100708.28;3533802;39;100633;-84
2021/07/29 02:58:03;;;;;;;4.90;2.47;;;17.90;99.90;;;15.79;100.00;100141.88;3539940;39;100100;-83
2021/07/29 03:00:30;;;;;;;3.38;2.67;;;16.80;99.90;;;15.68;100.00;100246.78;3548213;39;101384;-85
2021/07/29 03:02:57;;;;;;;4.78;2.85;;;16.70;99.90;;;15.61;100.00;100262.88;3547126;39;101484;-84
2021/07/29 03:05:25;;;;;;;6.20;3.83;;;16.70;99.90;;;15.61;100.00;100252.09;3540695;39;100335;-85
2021/07/29 03:07:52;;;;;;;4.32;2.47;;;17.70;99.90;;;15.57;100.00;100231.09;3530837;39;100347;-85
2021/07/29 03:10:19;;;;;;;4.65;2.03;;;17.00;99.90;;;15.47;100.00;100201.69;3536152;39;100607;-84
2021/07/29 03:12:46;;;;;;;4.53;2.78;;;17.20;99.90;;;15.43;100.00;100139.25;3533190;39;100843;-83
2021/07/29 03:15:13;;;;;;;5.72;2.67;;;16.70;99.90;;;15.36;100.00;100157.22;3536481;39;100763;-84
2021/07/29 03:17:40;;;;;;;2.55;2.35;;;16.60;99.90;;;15.42;100.00;100213.06;3535662;39;100050;-84
2021/07/29 03:20:09;;;;;;;4.28;3.13;;;16.60;99.90;;;15.41;100.00;100194.38;3537174;39;102851;-83
2021/07/29 03:22:37;;;;;;;4.60;3.10;;;16.60;99.90;;;15.45;100.00;100098.63;3541030;39;101060;-83
2021/07/29 03:25:05;;;;;;;5.47;2.88;;;16.60;99.90;;;15.56;100.00;100208.69;3537110;39;102627;-84
2021/07/29 03:27:32;;;;;;;4.68;3.05;;;16.50;99.90;;;15.64;100.00;100189.66;3541171;39;100195;-84
2021/07/29 03:29:59;;;;;;;3.47;2.80;;;16.60;99.90;;;15.60;100.00;100115.56;3543750;39;101203;-83
2021/07/29 03:32:26;;;;;;;5.13;2.88;;;16.60;99.90;;;15.60;100.00;100095.84;3547446;39;103600;-84
2021/07/29 03:34:53;;;;;;;3.67;2.72;;;17.20;99.90;;;15.57;100.00;100140.25;3552583;39;100629;-84
2021/07/29 03:37:20;;;;;;;5.07;3.10;;;16.60;99.90;;;15.52;100.00;100153.44;3553687;39;100262;-84
2021/07/29 03:39:49;;;;;;;3.50;2.67;;;16.60;99.90;;;15.42;100.00;100185.28;3551619;39;100978;-85
2021/07/29 03:42:18;;;;;;;3.42;2.47;;;17.30;99.90;;;15.37;100.00;100212.81;3550199;39;100717;-84
2021/07/29 03:44:45;;;;;;;3.33;2.83;;;16.60;99.90;;;15.36;100.00;100254.25;3549693;39;100742;-84
2021/07/29 03:47:12;;;;;;;5.65;3.22;;;16.60;99.90;;;15.41;100.00;100337.28;3545865;39;100142;-83
2021/07/29 03:49:39;;;;;;;5.05;3.38;;;17.30;99.90;;;15.44;100.00;100366.59;3546550;39;100876;-85
2021/07/29 03:52:06;;;;;;;3.42;2.92;;;15.30;99.90;;;15.48;100.00;100381.34;3548367;39;102918;-83
2021/07/29 03:54:33;;;;;;;3.97;3.13;;;16.50;99.90;;;15.55;100.00;100387.72;3536897;39;100116;-85
2021/07/29 03:57:02;;;;;;;4.18;2.72;;;16.50;99.90;;;15.66;100.00;100400.72;3548777;39;99920;-83
2021/07/29 03:59:29;;;;;;;4.57;2.90;;;16.50;99.90;;;15.84;100.00;100404.84;3549146;39;99976;-84
2021/07/29 04:01:56;;;;;;;3.45;2.92;;;16.60;99.90;;;15.83;100.00;100406.72;3539316;39;101754;-83
2021/07/29 04:04:23;;;;;;;3.42;2.35;;;16.60;99.90;;;15.92;100.00;100399.34;3530943;39;102677;-83
2021/07/29 04:06:50;;;;;;;3.58;3.08;;;16.60;99.90;;;16.08;100.00;100375.66;3535759;39;100222;-84
2021/07/29 04:09:17;;;;;;;3.38;2.55;;;16.70;99.90;;;16.21;100.00;100366.84;3539867;39;100957;-86
2021/07/29 04:11:44;;;;;;;4.28;2.95;;;16.80;99.90;;;16.34;100.00;100350.78;3548261;39;100931;-85
2021/07/29 04:14:12;;;;;;;3.05;2.38;;;16.80;99.90;;;16.24;100.00;100334.06;3546167;39;100391;-83
2021/07/29 04:16:39;;;;;;;4.63;2.95;;;16.90;99.90;;;16.26;100.00;100312.28;3543935;39;99970;-85
2021/07/29 04:19:06;;;;;;;3.65;2.60;;;17.00;99.90;;;16.32;100.00;100284.53;3539304;39;101662;-85
2021/07/29 04:21:33;;;;;;;3.72;2.65;;;17.10;99.90;;;16.32;100.00;100261.03;3543155;39;101245;-83
2021/07/29 04:24:00;;;;;;;3.67;2.38;;;17.10;99.90;;;16.39;100.00;100250.28;3542856;39;101289;-82
2021/07/29 04:26:27;;;;;;;2.97;2.20;;;17.10;99.90;;;16.49;100.00;100240.81;3550038;39;100054;-83
2021/07/29 04:28:54;;;;;;;2.97;2.42;;;17.20;99.90;;;16.48;100.00;100214.81;3547296;39;101022;-83
2021/07/29 04:31:23;;;;;;;2.72;2.03;;;17.30;99.90;;;16.73;100.00;100214.38;3545571;39;100873;-83
2021/07/29 04:33:52;;;;;;;2.30;1.85;;;17.40;99.90;;;16.93;100.00;100211.78;3546594;39;100215;-83
2021/07/29 04:36:19;;;;;;;4.95;2.38;;;17.40;99.90;;;17.09;100.00;100209.56;3548438;39;100080;-84
2021/07/29 04:38:46;;;;;;;4.07;2.17;;;18.60;99.90;;;17.19;100.00;100201.06;3534652;39;103246;-84
2021/07/29 04:41:13;;;;;;;2.47;2.05;;;17.70;99.90;;;17.32;100.00;100182.16;3531770;39;102301;-82
2021/07/29 04:43:40;;;;;;;5.05;2.20;;;17.80;99.90;;;17.59;100.00;100177.66;3556013;39;100461;-83
2021/07/29 04:46:07;;;;;;;2.88;1.85;;;18.20;99.90;;;17.51;100.00;100157.03;3541678;39;99998;-81
2021/07/29 04:48:36;;;;;;;4.25;2.88;;;19.10;99.90;;;17.69;100.00;100151.03;3546263;39;101591;-84
2021/07/29 04:51:03;;;;;;;2.03;1.73;;;18.20;99.90;;;17.92;100.00;100148.78;3539006;39;100832;-82
2021/07/29 04:53:31;;;;;;;3.25;2.00;;;19.30;99.90;;;17.94;100.00;100124.19;3541947;39;100285;-83
2021/07/29 04:55:59;;;;;;;3.10;1.88;;;19.20;99.90;;;17.87;100.00;100145.00;3543593;39;100300;-82
2021/07/29 04:58:26;;;;;;;3.20;2.03;;;18.70;99.90;;;18.02;100.00;100140.22;3534847;39;102507;-83
2021/07/29 05:00:53;;;;;;;5.28;2.13;;;18.70;99.90;;;17.89;100.00;100159.19;3542629;39;101482;-83
2021/07/29 05:03:20;;;;;;;4.45;2.20;;;18.80;99.90;;;17.83;100.00;100151.88;3537228;39;100299;-84
2021/07/29 05:05:48;;;;;;;2.03;1.25;;;18.90;99.90;;;17.83;100.00;100162.69;3545069;39;100431;-83
2021/07/29 05:08:15;;;;;;;5.93;2.28;;;20.00;99.90;;;17.80;100.00;100153.13;3544181;39;101039;-83
2021/07/29 05:10:42;;;;;;;3.47;1.92;;;19.00;99.90;;;17.89;100.00;100175.41;3540427;39;100438;-83
2021/07/29 05:13:09;;;;;;;6.22;1.55;;;19.10;99.90;;;17.93;100.00;100371.56;3541389;39;100610;-83
2021/07/29 05:15:37;;;;;;;1.60;1.48;;;19.00;99.90;;;18.01;100.00;100379.50;3544698;39;100189;-83
2021/07/29 05:18:04;;;;;;;1.55;1.42;;;19.80;99.90;;;18.03;100.00;100377.44;3540801;39;100805;-82
2021/07/29 05:20:31;;;;;;;3.08;1.80;;;19.50;99.90;;;17.99;100.00;100373.47;3535516;39;101632;-83
2021/07/29 05:23:00;;;;;;;2.13;1.42;;;19.50;99.90;;;18.01;100.00;100362.44;3543454;39;100589;-81
2021/07/29 05:25:27;;;;;;;2.75;2.25;;;19.50;99.90;;;17.99;100.00;100368.03;3527144;39;100192;-82
2021/07/29 05:27:54;;;;;;;2.95;1.88;;;19.50;99.90;;;17.99;100.00;100367.22;3533511;39;101576;-83
2021/07/29 05:30:21;;;;;;;2.05;1.15;;;19.60;99.90;;;17.92;100.00;100353.66;3535569;39;101479;-83
2021/07/29 05:32:48;;;;;;;1.38;1.25;;;19.50;99.90;;;17.95;100.00;100361.34;3528199;39;102317;-82
2021/07/29 05:35:15;;;;;;;1.50;1.30;;;20.30;99.90;;;17.90;100.00;100358.44;3518397;39;100502;-82
2021/07/29 05:37:42;;;;;;;1.85;1.38;;;20.20;99.90;;;17.98;100.00;100357.41;3536667;39;100888;-83
2021/07/29 05:40:11;;;;;;;1.48;1.15;;;19.50;99.90;;;17.93;100.00;100364.28;3533504;39;101503;-83
2021/07/29 05:42:38;;;;;;;1.98;1.23;;;19.60;99.90;;;17.97;100.00;100361.16;3528280;39;100725;-82
2021/07/29 05:45:06;;;;;;;2.20;1.70;;;19.60;99.90;;;17.98;100.00;100366.38;3518832;39;100200;-81
2021/07/29 05:47:36;;;;;;;2.80;1.30;;;19.60;99.90;;;18.02;100.00;100358.69;3530098;39;100882;-83
2021/07/29 05:50:04;;;;;;;1.55;1.20;;;19.60;99.90;;;18.00;100.00;100361.59;3527979;39;101515;-85
2021/07/29 05:52:31;;;;;;;1.20;1.10;;;19.60;99.90;;;17.96;100.00;100360.31;3527778;39;102300;-85
2021/07/29 05:54:58;;;;;;;1.63;1.10;;;20.70;99.90;;;18.01;100.00;100347.03;3543343;39;99314;-82
2021/07/29 05:57:26;;;;;;;1.92;1.27;;;19.70;99.90;;;18.13;100.00;100339.97;3544096;39;101481;-84
2021/07/29 05:59:53;;;;;;;2.60;1.48;;;19.70;99.90;;;18.18;100.00;100323.91;3533088;39;101155;-84
2021/07/29 06:02:20;;;;;;;1.60;1.20;;;19.80;99.90;;;18.27;100.00;100322.69;3528023;39;100739;-83
2021/07/29 06:04:48;;;;;;;2.85;1.00;;;19.70;99.90;;;18.19;100.00;100306.63;3529499;39;100204;-84
2021/07/29 06:07:15;;;;;;;2.97;1.55;;;19.70;99.90;;;18.27;100.00;100298.31;3533126;39;101121;-84
2021/07/29 06:09:42;;;;;;;2.47;1.63;;;19.80;99.90;;;18.31;100.00;100283.28;3523063;39;103252;-82
2021/07/29 06:12:10;;;;;;;1.50;1.02;;;19.80;99.90;;;18.44;100.00;100279.75;3529123;39;100160;-82
2021/07/29 06:14:38;;;;;;;1.33;1.20;;;19.80;99.90;;;18.73;100.00;100254.13;3529773;39;100390;-83
2021/07/29 06:17:06;;;;;;;1.83;1.17;;;20.70;99.90;;;18.83;100.00;100243.66;3529557;39;101846;-84
2021/07/29 06:19:33;;;;;;;1.98;1.42;;;20.50;99.90;;;18.90;100.00;100221.97;3534135;39;101425;-85
2021/07/29 06:22:00;;;;;;;1.73;1.08;;;21.00;99.90;;;19.03;100.00;100411.75;3528367;39;100219;-85
2021/07/29 06:24:28;;;;;;;5.78;1.17;;;21.00;99.90;;;19.17;100.00;100391.66;3531316;39;100224;-82
2021/07/29 06:26:59;;;;;;;1.83;0.98;;;21.40;99.90;;;19.24;100.00;100351.81;3538767;39;100891;-83
2021/07/29 06:29:26;;;;;;;2.10;1.08;;;21.30;99.90;;;19.56;100.00;100312.06;3525548;39;103287;-82
2021/07/29 06:31:54;;;;;;;2.45;1.30;;;20.60;99.90;;;19.69;100.00;100276.69;3543186;39;100456;-82
2021/07/29 06:34:21;;;;;;;1.92;1.27;;;20.80;99.90;;;19.88;100.00;100242.34;3542437;39;100034;-82
2021/07/29 06:36:48;;;;;;;3.38;1.70;;;20.90;99.90;;;20.11;100.00;100192.03;3543672;39;101844;-83
2021/07/29 06:39:15;;;;;;;3.22;1.50;;;21.80;99.90;;;20.20;100.00;100156.19;3558174;39;100229;-82
2021/07/29 06:41:42;;;;;;;2.65;1.13;;;21.30;99.90;;;20.29;100.00;100096.94;3539948;39;100459;-83
2021/07/29 06:44:10;;;;;;;2.10;1.42;;;21.40;99.90;;;20.27;100.00;100055.63;3534042;39;100641;-81
2021/07/29 06:46:39;;;;;;;3.15;1.15;;;21.60;99.90;;;20.31;100.00;100027.75;3539928;39;100627;-81
2021/07/29 06:49:07;;;;;;;1.52;1.17;;;21.90;99.90;;;20.71;100.00;100002.81;3525182;39;103329;-84
2021/07/29 06:51:36;;;;;;;1.33;0.90;;;22.00;99.90;;;20.92;100.00;99977.78;3533332;39;101086;-84
2021/07/29 06:54:05;;;;;;;1.15;0.95;;;23.10;99.90;;;20.63;100.00;99957.75;3532281;39;100204;-83
2021/07/29 06:56:32;;;;;;;1.42;1.23;;;22.30;99.90;;;20.52;100.00;99938.69;3529380;39;102632;-85
2021/07/29 06:59:04;;;;;;;1.63;1.17;;;22.60;99.90;;;20.53;100.00;99935.72;3539384;39;101054;-85
2021/07/29 07:01:31;;;;;;;2.33;1.20;;;22.60;99.80;;;20.47;100.00;99931.22;3536817;39;102439;-84
2021/07/29 07:03:58;;;;;;;4.55;1.48;;;22.70;99.50;;;20.51;100.00;99931.59;3527852;39;100404;-84
2021/07/29 07:06:26;;;;;;;1.15;1.02;;;23.20;98.90;;;20.57;100.00;99917.88;3541230;39;100572;-83
2021/07/29 07:08:53;;;;;;;1.40;1.25;;;23.20;98.20;;;20.59;100.00;99896.75;3529783;39;103493;-84
2021/07/29 07:11:21;;;;;;;1.88;1.58;;;22.70;97.20;;;20.35;100.00;99914.88;3538240;39;100341;-82
2021/07/29 07:13:48;;;;;;;1.23;0.85;;;22.70;96.60;;;20.40;100.00;99889.69;3547599;39;100057;-81
2021/07/29 07:16:16;;;;;;;1.40;1.20;;;23.50;95.30;;;20.88;100.00;99895.03;3532652;39;102851;-85
2021/07/29 07:18:43;;;;;;;1.00;0.85;;;22.70;95.60;;;21.06;100.00;99875.88;3555523;39;101248;-80
2021/07/29 07:21:12;;;;;;;2.10;1.13;;;23.80;95.40;;;21.06;100.00;99858.72;3550929;39;100093;-81
2021/07/29 07:23:41;;;;;;;0.90;0.65;;;23.50;93.10;;;20.82;100.00;99836.13;3537647;39;100101;-84
2021/07/29 07:26:16;;;;;;;2.33;1.15;;;23.40;91.90;;;20.84;100.00;99853.06;3522979;39;103285;-81
2021/07/29 07:28:43;;;;;;;2.08;0.93;;;23.10;91.20;;;21.10;100.00;99838.97;3527298;39;103482;-81
2021/07/29 07:31:10;;;;;;;1.90;1.00;;;24.00;91.40;;;21.52;100.00;99953.97;3535766;39;100780;-81
2021/07/29 07:33:37;;;;;;;1.35;0.90;;;23.40;91.50;;;21.60;100.00;99962.88;3539563;39;100014;-82
2021/07/29 07:36:04;;;;;;;2.55;0.90;;;23.30;90.70;;;21.31;100.00;99953.75;3541294;39;101178;-83
2021/07/29 07:38:32;;;;;;;1.30;0.70;;;23.50;84.10;;;21.44;100.00;99958.97;3540153;39;101323;-82
2021/07/29 07:41:05;;;;;;;1.05;0.70;;;24.40;85.60;;;21.41;100.00;99962.16;3540027;39;100532;-84
2021/07/29 07:43:33;;;;;;;1.23;1.02;;;23.50;84.00;;;21.36;100.00;99959.31;3532627;39;100450;-85
2021/07/29 07:46:01;;;;;;;1.25;0.82;;;23.80;82.90;;;21.48;100.00;99944.66;3536657;39;101148;-83
2021/07/29 07:48:28;;;;;;;0.80;0.80;;;23.90;78.40;;;21.65;100.00;99950.19;3543571;39;100934;-84
2021/07/29 07:50:55;;;;;;;1.23;0.75;;;24.00;74.80;;;21.71;100.00;99972.91;3533051;39;100217;-85
2021/07/29 07:53:25;;;;;;;2.30;0.90;;;24.70;73.20;;;21.64;100.00;99964.03;3527733;39;100245;-81
2021/07/29 07:55:52;;;;;;;1.88;1.00;;;24.10;72.00;;;21.81;100.00;99954.91;3538464;39;100836;-84
2021/07/29 07:58:21;;;;;;;1.55;0.88;;;23.90;72.10;;;21.86;100.00;99956.91;3538602;39;101446;-83
2021/07/29 08:00:49;;;;;;;1.25;0.98;;;25.10;71.10;;;21.83;100.00;99950.03;3524246;39;102833;-85
2021/07/29 08:03:16;;;;;;;2.13;1.00;;;24.20;71.20;;;22.27;100.00;99949.59;3552983;39;99996;-81
2021/07/29 08:05:43;;;;;;;1.15;0.80;;;24.40;70.80;;;21.88;100.00;99932.16;3553827;39;99935;-82
2021/07/29 08:08:10;;;;;;;0.80;0.80;;;24.60;65.80;;;21.93;100.00;99929.53;3536475;39;101027;-86
2021/07/29 08:10:38;;;;;;;1.20;0.80;;;24.60;65.40;;;22.11;100.00;99916.63;3538445;39;100558;-83
2021/07/29 08:13:06;;;;;;;1.27;0.90;;;24.80;64.80;;;22.21;100.00;99915.97;3536956;39;100256;-83
2021/07/29 08:15:35;;;;;;;1.92;0.75;;;24.60;64.40;;;22.34;100.00;99910.25;3538517;39;101115;-85
2021/07/29 08:18:03;;;;;;;1.25;0.60;;;23.90;64.30;;;22.56;100.00;99897.56;3539663;39;101332;-84
2021/07/29 08:20:30;;;;;;;1.08;0.80;;;25.60;64.70;;;22.58;100.00;99902.75;3539289;39;100775;-83
2021/07/29 08:22:57;;;;;;;0.95;0.85;;;25.00;63.80;;;22.51;100.00;99902.91;3534517;39;100182;-83
2021/07/29 08:25:25;;;;;;;0.90;0.73;;;25.90;62.00;;;22.21;100.00;99895.00;3535926;39;101108;-81
2021/07/29 08:27:54;;;;;;;1.23;0.90;;;26.10;62.30;;;22.09;100.00;99896.13;3537396;39;101491;-83
2021/07/29 08:30:22;;;;;;;1.52;0.77;;;26.00;60.70;;;22.34;100.00;99885.72;3537153;39;100679;-83
2021/07/29 08:32:50;;;;;;;1.52;0.98;;;25.20;59.80;;;22.44;100.00;99890.50;3535469;39;100188;-83
2021/07/29 08:35:18;;;;;;;0.68;0.60;;;25.80;61.40;;;22.77;100.00;99887.00;3528448;39;102823;-82
2021/07/29 08:37:50;;;;;;;1.08;0.68;;;25.40;60.90;;;22.94;100.00;99882.41;3535511;39;101274;-81
2021/07/29 08:40:18;;;;;;;1.98;1.30;;;25.30;61.20;;;22.97;100.00;99873.72;3524068;39;102609;-81
2021/07/29 08:42:46;;;;;;;3.50;1.33;;;25.80;61.60;;;22.91;100.00;99872.81;3534671;39;99884;-81
2021/07/29 08:45:14;;;;;;;1.58;0.90;;;25.60;60.40;;;22.61;100.00;99875.00;3534346;39;101316;-83
2021/07/29 08:47:44;;;;;;;2.67;0.80;;;25.70;58.30;;;22.52;100.00;99873.75;3550632;39;100819;-82
2021/07/29 08:50:14;;;;;;;1.30;1.20;;;25.60;57.60;;;22.57;100.00;99868.38;3548771;39;100005;-84
2021/07/29 08:52:41;;;;;;;0.52;0.52;;;25.60;57.60;;;22.64;100.00;99871.78;3539733;39;100182;-83
2021/07/29 08:55:09;;;;;;;5.05;1.38;;;25.50;58.10;;;22.64;100.00;99866.31;3537272;39;100928;-82
2021/07/29 08:57:38;;;;;;;1.70;1.02;;;25.50;57.50;;;22.83;100.00;99884.13;3537487;39;101312;-84
2021/07/29 09:00:10;;;;;;;1.05;0.95;;;26.00;58.40;;;22.75;100.00;99867.34;3537011;39;100950;-82
2021/07/29 09:02:38;;;;;;;1.42;1.13;;;25.50;58.30;;;22.85;100.00;99862.06;3537285;39;100050;-83
2021/07/29 09:05:16;;;;;;;1.65;0.95;;;25.60;58.10;;;23.58;100.00;99852.78;3531456;39;101478;-83
2021/07/29 09:07:45;;;;;;;1.40;1.00;;;25.60;59.00;;;23.25;100.00;99843.56;3534532;39;102831;-82
2021/07/29 09:10:25;;;;;;;1.13;0.93;;;25.80;58.10;;;23.55;100.00;99853.28;3524455;39;102197;-84
2021/07/29 09:13:15;;;;;;;0.82;0.80;;;25.90;58.30;;;23.84;100.00;99857.47;3535858;39;100290;-82
2021/07/29 09:15:44;;;;;;;1.05;0.90;;;26.00;58.10;;;23.70;100.00;99855.38;3538296;39;101024;-84
2021/07/29 09:18:16;;;;;;;1.42;1.20;;;26.20;57.20;;;23.62;100.00;99860.19;3534454;39;101202;-83
2021/07/29 09:20:45;;;;;;;1.98;0.90;;;26.30;56.70;;;23.76;100.00;99852.44;3530219;39;102341;-82
2021/07/29 09:23:20;;;;;;;2.53;1.08;;;26.40;57.00;;;23.62;100.00;99849.28;3534979;39;100028;-82
2021/07/29 09:26:01;;;;;;;1.80;1.05;;;26.80;57.40;;;23.40;100.00;99851.13;3535650;39;101159;-84
2021/07/29 09:28:36;;;;;;;2.67;1.13;;;26.60;56.30;;;23.38;100.00;99858.75;3529445;39;103235;-81
2021/07/29 09:31:21;;;;;;;4.18;1.23;;;26.50;56.00;;;23.62;100.00;99860.19;3536507;39;100704;-82
2021/07/29 09:33:58;;;;;;;1.45;0.80;;;26.60;56.20;;;23.78;100.00;99854.94;3538364;39;100058;-81
2021/07/29 09:36:31;;;;;;;1.98;0.88;;;26.70;55.20;;;24.02;100.00;99855.47;3556732;39;100638;-82
2021/07/29 09:39:19;;;;;;;1.27;0.90;;;26.80;55.60;;;24.17;100.00;99851.00;3556769;39;100195;-83
2021/07/29 09:41:47;;;;;;;2.00;0.90;;;26.90;55.60;;;23.94;100.00;99854.88;3539623;39;100236;-84
2021/07/29 09:44:15;;;;;;;0.52;0.52;;;27.00;54.90;;;24.07;100.00;99850.91;3535029;39;100246;-82
2021/07/29 09:46:43;;;;;;;1.73;1.42;;;27.20;53.70;;;24.00;100.00;99859.28;3537708;39;101109;-83
2021/07/29 09:49:12;;;;;;;3.03;1.30;;;27.20;51.60;;;23.69;100.00;99856.47;3542428;39;103818;-85
2021/07/29 09:51:42;;;;;;;0.93;0.77;;;27.10;51.10;;;23.64;100.00;99857.22;3538789;39;100232;-84
2021/07/29 09:54:10;;;;;;;3.70;1.25;;;27.00;51.20;;;23.85;100.00;99852.84;3531391;39;100174;-82
2021/07/29 09:56:37;;;;;;;0.63;0.63;;;27.00;52.00;;;23.83;100.00;99855.81;3540049;39;101115;-85
2021/07/29 09:59:05;;;;;;;1.58;1.02;;;27.20;51.20;;;23.88;100.00;99853.13;3536036;39;101489;-81
2021/07/29 10:01:33;;;;;;;0.75;0.75;;;27.50;51.40;;;24.06;100.00;99851.97;3527303;39;102474;-84
2021/07/29 10:04:04;;;;;;;0.60;0.57;;;27.00;51.00;;;23.59;100.00;99870.81;3538472;39;100345;-82
2021/07/29 10:06:37;;;;;;;1.20;0.90;;;26.80;49.80;;;23.24;100.00;99876.59;3545762;39;100608;-85
2021/07/29 10:09:13;;;;;;;2.40;0.90;;;26.70;49.60;;;23.10;100.00;99872.56;3527176;39;102036;-84